sensor_id;sensor_type;location;lat;lon;timestamp;P1;durP1;ratioP1;P2;durP2;ratioP2
72105;SDS011;59975;47.646;18.318;2023-04-21T00:00:18;10.57;;;3.00;;
72105;SDS011;59975;47.646;18.318;2023-04-21T00:02:44;7.57;;;3.23;;
72105;SDS011;59975;47.646;18.318;2023-04-21T00:05:10;8.23;;;3.25;;
72105;SDS011;59975;47.646;18.318;2023-04-21T00:07:38;11.23;;;3.00;;
72105;SDS011;59975;47.646;18.318;2023-04-21T00:10:13;5.32;;;2.92;;
72105;SDS011;59975;47.646;18.318;2023-04-21T00:12:39;7.47;;;3.47;;
72105;SDS011;59975;47.646;18.318;2023-04-21T00:15:05;5.83;;;3.00;;
72105;SDS011;59975;47.646;18.318;2023-04-21T00:17:31;8.85;;;2.83;;
72105;SDS011;59975;47.646;18.318;2023-04-21T00:19:57;8.00;;;2.75;;
72105;SDS011;59975;47.646;18.318;2023-04-21T00:22:29;5.63;;;2.90;;
72105;SDS011;59975;47.646;18.318;2023-04-21T00:24:55;6.55;;;3.20;;
72105;SDS011;59975;47.646;18.318;2023-04-21T00:27:20;5.57;;;2.50;;
72105;SDS011;59975;47.646;18.318;2023-04-21T00:29:46;8.00;;;2.70;;
72105;SDS011;59975;47.646;18.318;2023-04-21T00:32:11;5.10;;;2.45;;
72105;SDS011;59975;47.646;18.318;2023-04-21T00:34:36;7.63;;;2.83;;
72105;SDS011;59975;47.646;18.318;2023-04-21T00:37:02;5.93;;;2.60;;
72105;SDS011;59975;47.646;18.318;2023-04-21T00:39:28;9.15;;;2.33;;
72105;SDS011;59975;47.646;18.318;2023-04-21T00:41:53;8.23;;;1.97;;
72105;SDS011;59975;47.646;18.318;2023-04-21T00:44:19;8.63;;;2.60;;
72105;SDS011;59975;47.646;18.318;2023-04-21T00:46:44;7.45;;;2.63;;
72105;SDS011;59975;47.646;18.318;2023-04-21T00:49:11;7.18;;;2.50;;
72105;SDS011;59975;47.646;18.318;2023-04-21T00:51:37;10.77;;;2.70;;
72105;SDS011;59975;47.646;18.318;2023-04-21T00:54:04;5.35;;;2.35;;
72105;SDS011;59975;47.646;18.318;2023-04-21T00:56:32;7.78;;;2.40;;
72105;SDS011;59975;47.646;18.318;2023-04-21T00:58:58;5.13;;;2.42;;
72105;SDS011;59975;47.646;18.318;2023-04-21T01:01:29;6.80;;;2.33;;
72105;SDS011;59975;47.646;18.318;2023-04-21T01:03:56;7.83;;;2.57;;
72105;SDS011;59975;47.646;18.318;2023-04-21T01:06:23;6.28;;;2.58;;
72105;SDS011;59975;47.646;18.318;2023-04-21T01:08:52;9.07;;;2.85;;
72105;SDS011;59975;47.646;18.318;2023-04-21T01:11:19;8.40;;;2.47;;
72105;SDS011;59975;47.646;18.318;2023-04-21T01:13:45;13.63;;;3.00;;
72105;SDS011;59975;47.646;18.318;2023-04-21T01:16:18;8.17;;;2.80;;
72105;SDS011;59975;47.646;18.318;2023-04-21T01:18:46;10.18;;;2.60;;
72105;SDS011;59975;47.646;18.318;2023-04-21T01:21:12;7.93;;;2.67;;
72105;SDS011;59975;47.646;18.318;2023-04-21T01:23:41;12.35;;;3.08;;
72105;SDS011;59975;47.646;18.318;2023-04-21T01:26:07;9.05;;;3.22;;
72105;SDS011;59975;47.646;18.318;2023-04-21T01:28:33;8.10;;;2.57;;
72105;SDS011;59975;47.646;18.318;2023-04-21T01:30:59;13.68;;;3.45;;
72105;SDS011;59975;47.646;18.318;2023-04-21T01:33:25;10.00;;;2.73;;
72105;SDS011;59975;47.646;18.318;2023-04-21T01:35:50;11.47;;;2.63;;
72105;SDS011;59975;47.646;18.318;2023-04-21T01:38:16;6.72;;;3.15;;
72105;SDS011;59975;47.646;18.318;2023-04-21T01:40:43;4.97;;;2.63;;
72105;SDS011;59975;47.646;18.318;2023-04-21T01:43:11;10.52;;;2.60;;
72105;SDS011;59975;47.646;18.318;2023-04-21T01:45:38;10.40;;;3.00;;
72105;SDS011;59975;47.646;18.318;2023-04-21T01:48:03;10.23;;;2.87;;
72105;SDS011;59975;47.646;18.318;2023-04-21T01:50:29;7.00;;;2.30;;
72105;SDS011;59975;47.646;18.318;2023-04-21T01:52:55;7.50;;;2.83;;
72105;SDS011;59975;47.646;18.318;2023-04-21T01:55:20;12.70;;;3.97;;
72105;SDS011;59975;47.646;18.318;2023-04-21T01:57:46;8.43;;;3.07;;
72105;SDS011;59975;47.646;18.318;2023-04-21T02:00:12;11.03;;;3.60;;
72105;SDS011;59975;47.646;18.318;2023-04-21T02:02:38;15.95;;;3.33;;
72105;SDS011;59975;47.646;18.318;2023-04-21T02:05:10;9.65;;;3.15;;
72105;SDS011;59975;47.646;18.318;2023-04-21T02:07:36;7.50;;;2.50;;
72105;SDS011;59975;47.646;18.318;2023-04-21T02:10:01;6.50;;;3.13;;
72105;SDS011;59975;47.646;18.318;2023-04-21T02:12:27;5.90;;;2.63;;
72105;SDS011;59975;47.646;18.318;2023-04-21T02:14:53;9.87;;;3.20;;
72105;SDS011;59975;47.646;18.318;2023-04-21T02:17:18;13.23;;;3.10;;
72105;SDS011;59975;47.646;18.318;2023-04-21T02:19:44;13.93;;;3.10;;
72105;SDS011;59975;47.646;18.318;2023-04-21T02:22:09;9.30;;;3.30;;
72105;SDS011;59975;47.646;18.318;2023-04-21T02:24:36;6.63;;;3.07;;
72105;SDS011;59975;47.646;18.318;2023-04-21T02:27:02;8.68;;;3.90;;
72105;SDS011;59975;47.646;18.318;2023-04-21T02:29:28;11.67;;;3.30;;
72105;SDS011;59975;47.646;18.318;2023-04-21T02:31:53;8.07;;;2.83;;
72105;SDS011;59975;47.646;18.318;2023-04-21T02:34:19;8.57;;;3.30;;
72105;SDS011;59975;47.646;18.318;2023-04-21T02:36:45;7.33;;;3.30;;
72105;SDS011;59975;47.646;18.318;2023-04-21T02:39:10;10.90;;;3.63;;
72105;SDS011;59975;47.646;18.318;2023-04-21T02:41:36;8.27;;;3.22;;
72105;SDS011;59975;47.646;18.318;2023-04-21T02:44:03;7.05;;;3.75;;
72105;SDS011;59975;47.646;18.318;2023-04-21T02:46:28;7.35;;;4.03;;
72105;SDS011;59975;47.646;18.318;2023-04-21T02:48:54;9.95;;;3.83;;
72105;SDS011;59975;47.646;18.318;2023-04-21T02:51:20;8.97;;;3.97;;
72105;SDS011;59975;47.646;18.318;2023-04-21T02:53:46;11.80;;;3.58;;
72105;SDS011;59975;47.646;18.318;2023-04-21T02:56:11;10.27;;;3.50;;
72105;SDS011;59975;47.646;18.318;2023-04-21T02:58:37;7.03;;;3.07;;
72105;SDS011;59975;47.646;18.318;2023-04-21T03:01:03;6.63;;;3.25;;
72105;SDS011;59975;47.646;18.318;2023-04-21T03:03:29;7.60;;;3.40;;
72105;SDS011;59975;47.646;18.318;2023-04-21T03:06:02;9.27;;;3.50;;
72105;SDS011;59975;47.646;18.318;2023-04-21T03:08:29;11.95;;;3.97;;
72105;SDS011;59975;47.646;18.318;2023-04-21T03:10:55;9.70;;;4.57;;
72105;SDS011;59975;47.646;18.318;2023-04-21T03:13:21;13.48;;;4.55;;
72105;SDS011;59975;47.646;18.318;2023-04-21T03:15:47;8.40;;;4.13;;
72105;SDS011;59975;47.646;18.318;2023-04-21T03:18:13;8.23;;;3.80;;
72105;SDS011;59975;47.646;18.318;2023-04-21T03:20:38;12.87;;;4.10;;
72105;SDS011;59975;47.646;18.318;2023-04-21T03:23:04;11.23;;;4.13;;
72105;SDS011;59975;47.646;18.318;2023-04-21T03:25:29;13.83;;;5.20;;
72105;SDS011;59975;47.646;18.318;2023-04-21T03:27:55;12.07;;;5.33;;
72105;SDS011;59975;47.646;18.318;2023-04-21T03:30:21;8.63;;;4.60;;
72105;SDS011;59975;47.646;18.318;2023-04-21T03:32:48;8.50;;;4.40;;
72105;SDS011;59975;47.646;18.318;2023-04-21T03:35:14;12.50;;;4.63;;
72105;SDS011;59975;47.646;18.318;2023-04-21T03:37:40;11.05;;;5.60;;
72105;SDS011;59975;47.646;18.318;2023-04-21T03:40:06;10.43;;;5.27;;
72105;SDS011;59975;47.646;18.318;2023-04-21T03:42:33;10.18;;;5.60;;
72105;SDS011;59975;47.646;18.318;2023-04-21T03:45:02;10.55;;;4.78;;
72105;SDS011;59975;47.646;18.318;2023-04-21T03:47:28;14.18;;;5.68;;
72105;SDS011;59975;47.646;18.318;2023-04-21T03:49:54;11.77;;;5.30;;
72105;SDS011;59975;47.646;18.318;2023-04-21T03:52:19;12.73;;;5.13;;
72105;SDS011;59975;47.646;18.318;2023-04-21T03:54:45;12.07;;;5.13;;
72105;SDS011;59975;47.646;18.318;2023-04-21T03:57:11;14.33;;;5.53;;
72105;SDS011;59975;47.646;18.318;2023-04-21T03:59:36;9.95;;;5.68;;
72105;SDS011;59975;47.646;18.318;2023-04-21T04:02:02;13.50;;;5.33;;
72105;SDS011;59975;47.646;18.318;2023-04-21T04:04:28;8.65;;;5.15;;
72105;SDS011;59975;47.646;18.318;2023-04-21T04:06:53;13.07;;;4.97;;
72105;SDS011;59975;47.646;18.318;2023-04-21T04:09:19;8.90;;;5.30;;
72105;SDS011;59975;47.646;18.318;2023-04-21T04:11:44;11.95;;;5.53;;
72105;SDS011;59975;47.646;18.318;2023-04-21T04:14:10;10.87;;;5.53;;
72105;SDS011;59975;47.646;18.318;2023-04-21T04:16:35;10.00;;;5.70;;
72105;SDS011;59975;47.646;18.318;2023-04-21T04:19:01;11.57;;;6.00;;
72105;SDS011;59975;47.646;18.318;2023-04-21T04:21:27;15.35;;;6.80;;
72105;SDS011;59975;47.646;18.318;2023-04-21T04:23:53;12.77;;;6.53;;
72105;SDS011;59975;47.646;18.318;2023-04-21T04:26:19;12.15;;;6.03;;
72105;SDS011;59975;47.646;18.318;2023-04-21T04:28:46;10.27;;;5.65;;
72105;SDS011;59975;47.646;18.318;2023-04-21T04:31:12;10.13;;;5.90;;
72105;SDS011;59975;47.646;18.318;2023-04-21T04:33:42;14.32;;;7.00;;
72105;SDS011;59975;47.646;18.318;2023-04-21T04:36:08;13.13;;;6.50;;
72105;SDS011;59975;47.646;18.318;2023-04-21T04:38:36;15.93;;;6.47;;
72105;SDS011;59975;47.646;18.318;2023-04-21T04:41:02;15.02;;;5.13;;
72105;SDS011;59975;47.646;18.318;2023-04-21T04:43:29;17.35;;;6.30;;
72105;SDS011;59975;47.646;18.318;2023-04-21T04:45:58;15.75;;;7.18;;
72105;SDS011;59975;47.646;18.318;2023-04-21T04:48:23;17.92;;;8.23;;
72105;SDS011;59975;47.646;18.318;2023-04-21T04:50:50;17.35;;;6.97;;
72105;SDS011;59975;47.646;18.318;2023-04-21T04:53:15;20.40;;;7.28;;
72105;SDS011;59975;47.646;18.318;2023-04-21T04:55:41;17.33;;;8.17;;
72105;SDS011;59975;47.646;18.318;2023-04-21T04:58:06;17.93;;;8.60;;
72105;SDS011;59975;47.646;18.318;2023-04-21T05:00:32;12.60;;;7.55;;
72105;SDS011;59975;47.646;18.318;2023-04-21T05:02:58;21.40;;;7.97;;
72105;SDS011;59975;47.646;18.318;2023-04-21T05:05:23;14.50;;;6.37;;
72105;SDS011;59975;47.646;18.318;2023-04-21T05:07:49;19.10;;;7.37;;
72105;SDS011;59975;47.646;18.318;2023-04-21T05:10:15;14.85;;;6.43;;
72105;SDS011;59975;47.646;18.318;2023-04-21T05:12:40;12.40;;;5.43;;
72105;SDS011;59975;47.646;18.318;2023-04-21T05:15:06;16.63;;;4.43;;
72105;SDS011;59975;47.646;18.318;2023-04-21T05:17:32;17.42;;;7.00;;
72105;SDS011;59975;47.646;18.318;2023-04-21T05:19:58;20.65;;;7.45;;
72105;SDS011;59975;47.646;18.318;2023-04-21T05:22:24;14.07;;;5.37;;
72105;SDS011;59975;47.646;18.318;2023-04-21T05:24:50;20.95;;;7.00;;
72105;SDS011;59975;47.646;18.318;2023-04-21T05:27:16;15.20;;;7.28;;
72105;SDS011;59975;47.646;18.318;2023-04-21T05:29:41;22.70;;;7.90;;
72105;SDS011;59975;47.646;18.318;2023-04-21T05:32:07;17.90;;;7.50;;
72105;SDS011;59975;47.646;18.318;2023-04-21T05:34:33;17.67;;;7.40;;
72105;SDS011;59975;47.646;18.318;2023-04-21T05:36:59;15.43;;;6.32;;
72105;SDS011;59975;47.646;18.318;2023-04-21T05:39:26;17.00;;;6.30;;
72105;SDS011;59975;47.646;18.318;2023-04-21T05:41:55;16.30;;;4.70;;
72105;SDS011;59975;47.646;18.318;2023-04-21T05:44:24;14.60;;;5.28;;
72105;SDS011;59975;47.646;18.318;2023-04-21T05:46:49;18.40;;;5.37;;
72105;SDS011;59975;47.646;18.318;2023-04-21T05:49:21;16.33;;;6.15;;
72105;SDS011;59975;47.646;18.318;2023-04-21T05:51:46;9.30;;;3.90;;
72105;SDS011;59975;47.646;18.318;2023-04-21T05:54:12;9.95;;;3.03;;
72105;SDS011;59975;47.646;18.318;2023-04-21T05:56:41;11.50;;;2.97;;
72105;SDS011;59975;47.646;18.318;2023-04-21T05:59:18;13.87;;;3.33;;
72105;SDS011;59975;47.646;18.318;2023-04-21T06:02:06;13.90;;;2.97;;
72105;SDS011;59975;47.646;18.318;2023-04-21T06:04:38;10.40;;;3.35;;
72105;SDS011;59975;47.646;18.318;2023-04-21T06:07:07;6.03;;;2.05;;
72105;SDS011;59975;47.646;18.318;2023-04-21T06:09:34;16.85;;;2.65;;
72105;SDS011;59975;47.646;18.318;2023-04-21T06:12:01;8.40;;;2.13;;
72105;SDS011;59975;47.646;18.318;2023-04-21T06:14:27;12.02;;;2.70;;
72105;SDS011;59975;47.646;18.318;2023-04-21T06:16:53;8.68;;;3.95;;
72105;SDS011;59975;47.646;18.318;2023-04-21T06:19:18;12.43;;;5.07;;
72105;SDS011;59975;47.646;18.318;2023-04-21T06:21:47;9.48;;;2.63;;
72105;SDS011;59975;47.646;18.318;2023-04-21T06:24:30;12.47;;;2.90;;
72105;SDS011;59975;47.646;18.318;2023-04-21T06:26:56;7.80;;;2.65;;
72105;SDS011;59975;47.646;18.318;2023-04-21T06:29:30;9.25;;;2.97;;
72105;SDS011;59975;47.646;18.318;2023-04-21T06:35:00;12.17;;;3.00;;
72105;SDS011;59975;47.646;18.318;2023-04-21T06:37:31;8.30;;;2.83;;
72105;SDS011;59975;47.646;18.318;2023-04-21T06:40:00;12.02;;;2.35;;
72105;SDS011;59975;47.646;18.318;2023-04-21T06:42:53;6.43;;;3.23;;
72105;SDS011;59975;47.646;18.318;2023-04-21T06:49:08;8.27;;;2.90;;
72105;SDS011;59975;47.646;18.318;2023-04-21T06:51:37;8.43;;;2.83;;
72105;SDS011;59975;47.646;18.318;2023-04-21T06:54:08;5.90;;;2.43;;
72105;SDS011;59975;47.646;18.318;2023-04-21T06:56:37;6.10;;;3.33;;
72105;SDS011;59975;47.646;18.318;2023-04-21T06:59:03;9.68;;;3.10;;
72105;SDS011;59975;47.646;18.318;2023-04-21T07:01:28;10.38;;;2.95;;
72105;SDS011;59975;47.646;18.318;2023-04-21T07:03:54;7.60;;;3.03;;
72105;SDS011;59975;47.646;18.318;2023-04-21T07:06:20;12.35;;;2.40;;
72105;SDS011;59975;47.646;18.318;2023-04-21T07:08:45;10.90;;;2.03;;
72105;SDS011;59975;47.646;18.318;2023-04-21T07:11:11;11.80;;;2.50;;
72105;SDS011;59975;47.646;18.318;2023-04-21T07:13:44;6.68;;;2.10;;
72105;SDS011;59975;47.646;18.318;2023-04-21T07:16:10;9.70;;;2.78;;
72105;SDS011;59975;47.646;18.318;2023-04-21T07:21:38;9.20;;;2.60;;
72105;SDS011;59975;47.646;18.318;2023-04-21T07:24:17;34.17;;;14.52;;
72105;SDS011;59975;47.646;18.318;2023-04-21T07:43:59;8.98;;;2.83;;
72105;SDS011;59975;47.646;18.318;2023-04-21T07:46:28;8.90;;;2.63;;
72105;SDS011;59975;47.646;18.318;2023-04-21T07:48:59;13.70;;;3.00;;
72105;SDS011;59975;47.646;18.318;2023-04-21T07:51:25;10.80;;;2.35;;
72105;SDS011;59975;47.646;18.318;2023-04-21T07:53:53;4.97;;;2.60;;
72105;SDS011;59975;47.646;18.318;2023-04-21T07:59:16;6.57;;;2.73;;
72105;SDS011;59975;47.646;18.318;2023-04-21T08:01:41;8.95;;;2.50;;
72105;SDS011;59975;47.646;18.318;2023-04-21T08:32:18;9.10;;;2.73;;
72105;SDS011;59975;47.646;18.318;2023-04-21T08:34:51;9.40;;;2.60;;
72105;SDS011;59975;47.646;18.318;2023-04-21T08:37:27;6.78;;;2.55;;
72105;SDS011;59975;47.646;18.318;2023-04-21T08:40:11;7.25;;;2.80;;
72105;SDS011;59975;47.646;18.318;2023-04-21T08:42:50;10.35;;;2.90;;
72105;SDS011;59975;47.646;18.318;2023-04-21T08:48:21;6.13;;;2.42;;
72105;SDS011;59975;47.646;18.318;2023-04-21T09:00:36;9.13;;;3.03;;
72105;SDS011;59975;47.646;18.318;2023-04-21T09:24:16;7.78;;;3.00;;
72105;SDS011;59975;47.646;18.318;2023-04-21T09:33:49;12.70;;;2.90;;
72105;SDS011;59975;47.646;18.318;2023-04-21T09:46:57;11.65;;;3.78;;
72105;SDS011;59975;47.646;18.318;2023-04-21T09:53:16;8.60;;;3.10;;
72105;SDS011;59975;47.646;18.318;2023-04-21T09:56:24;10.98;;;3.28;;
72105;SDS011;59975;47.646;18.318;2023-04-21T09:59:18;5.63;;;2.90;;
72105;SDS011;59975;47.646;18.318;2023-04-21T10:19:46;12.70;;;3.40;;
72105;SDS011;59975;47.646;18.318;2023-04-21T10:25:18;10.20;;;3.97;;
72105;SDS011;59975;47.646;18.318;2023-04-21T10:27:47;10.82;;;4.93;;
72105;SDS011;59975;47.646;18.318;2023-04-21T10:39:01;12.73;;;3.28;;
72105;SDS011;59975;47.646;18.318;2023-04-21T10:50:38;10.00;;;3.17;;
72105;SDS011;59975;47.646;18.318;2023-04-21T10:53:11;7.75;;;3.25;;
72105;SDS011;59975;47.646;18.318;2023-04-21T10:55:37;8.82;;;3.40;;
72105;SDS011;59975;47.646;18.318;2023-04-21T11:00:56;7.63;;;3.30;;
72105;SDS011;59975;47.646;18.318;2023-04-21T11:03:23;10.95;;;3.75;;
72105;SDS011;59975;47.646;18.318;2023-04-21T11:05:49;10.63;;;2.75;;
72105;SDS011;59975;47.646;18.318;2023-04-21T11:08:25;5.03;;;3.20;;
72105;SDS011;59975;47.646;18.318;2023-04-21T11:10:51;8.88;;;3.42;;
72105;SDS011;59975;47.646;18.318;2023-04-21T11:13:37;8.88;;;2.88;;
72105;SDS011;59975;47.646;18.318;2023-04-21T11:16:05;6.60;;;3.38;;
72105;SDS011;59975;47.646;18.318;2023-04-21T11:18:33;4.97;;;3.07;;
72105;SDS011;59975;47.646;18.318;2023-04-21T11:23:40;6.68;;;3.45;;
72105;SDS011;59975;47.646;18.318;2023-04-21T11:26:06;5.47;;;2.83;;
72105;SDS011;59975;47.646;18.318;2023-04-21T11:28:32;8.25;;;3.10;;
72105;SDS011;59975;47.646;18.318;2023-04-21T11:30:57;10.30;;;3.37;;
72105;SDS011;59975;47.646;18.318;2023-04-21T11:33:23;7.87;;;3.40;;
72105;SDS011;59975;47.646;18.318;2023-04-21T11:35:48;13.05;;;4.00;;
72105;SDS011;59975;47.646;18.318;2023-04-21T11:38:15;5.13;;;3.15;;
72105;SDS011;59975;47.646;18.318;2023-04-21T11:40:45;8.53;;;3.27;;
72105;SDS011;59975;47.646;18.318;2023-04-21T11:43:13;7.68;;;3.75;;
72105;SDS011;59975;47.646;18.318;2023-04-21T11:45:40;7.80;;;3.67;;
72105;SDS011;59975;47.646;18.318;2023-04-21T11:48:15;7.95;;;2.83;;
72105;SDS011;59975;47.646;18.318;2023-04-21T11:50:51;11.07;;;4.05;;
72105;SDS011;59975;47.646;18.318;2023-04-21T11:53:17;5.97;;;3.03;;
72105;SDS011;59975;47.646;18.318;2023-04-21T11:55:46;7.32;;;2.90;;
72105;SDS011;59975;47.646;18.318;2023-04-21T11:58:12;7.57;;;2.90;;
72105;SDS011;59975;47.646;18.318;2023-04-21T12:00:42;11.15;;;3.42;;
72105;SDS011;59975;47.646;18.318;2023-04-21T12:03:11;6.30;;;3.40;;
72105;SDS011;59975;47.646;18.318;2023-04-21T12:05:37;6.33;;;2.80;;
72105;SDS011;59975;47.646;18.318;2023-04-21T12:08:03;9.75;;;3.35;;
72105;SDS011;59975;47.646;18.318;2023-04-21T12:10:32;5.30;;;3.13;;
72105;SDS011;59975;47.646;18.318;2023-04-21T12:12:58;7.78;;;3.30;;
72105;SDS011;59975;47.646;18.318;2023-04-21T12:15:24;6.95;;;3.00;;
72105;SDS011;59975;47.646;18.318;2023-04-21T12:17:50;10.18;;;3.47;;
72105;SDS011;59975;47.646;18.318;2023-04-21T12:20:18;7.97;;;3.20;;
72105;SDS011;59975;47.646;18.318;2023-04-21T12:22:46;6.28;;;3.17;;
72105;SDS011;59975;47.646;18.318;2023-04-21T12:25:13;10.75;;;3.50;;
72105;SDS011;59975;47.646;18.318;2023-04-21T12:27:48;11.00;;;3.05;;
72105;SDS011;59975;47.646;18.318;2023-04-21T12:30:15;7.78;;;3.30;;
72105;SDS011;59975;47.646;18.318;2023-04-21T12:32:41;11.17;;;3.77;;
72105;SDS011;59975;47.646;18.318;2023-04-21T12:35:07;7.85;;;3.30;;
72105;SDS011;59975;47.646;18.318;2023-04-21T12:37:35;8.05;;;3.50;;
72105;SDS011;59975;47.646;18.318;2023-04-21T12:40:03;4.77;;;3.40;;
72105;SDS011;59975;47.646;18.318;2023-04-21T12:42:36;12.02;;;3.78;;
72105;SDS011;59975;47.646;18.318;2023-04-21T12:45:06;8.63;;;3.17;;
72105;SDS011;59975;47.646;18.318;2023-04-21T12:47:35;10.13;;;3.38;;
72105;SDS011;59975;47.646;18.318;2023-04-21T12:53:38;5.27;;;3.70;;
72105;SDS011;59975;47.646;18.318;2023-04-21T12:56:06;6.30;;;3.40;;
72105;SDS011;59975;47.646;18.318;2023-04-21T13:01:40;6.95;;;3.40;;
72105;SDS011;59975;47.646;18.318;2023-04-21T13:04:08;8.05;;;3.38;;
72105;SDS011;59975;47.646;18.318;2023-04-21T13:06:34;7.60;;;3.33;;
72105;SDS011;59975;47.646;18.318;2023-04-21T13:09:02;8.77;;;3.05;;
72105;SDS011;59975;47.646;18.318;2023-04-21T13:11:28;6.57;;;3.75;;
72105;SDS011;59975;47.646;18.318;2023-04-21T13:13:54;7.00;;;3.53;;
72105;SDS011;59975;47.646;18.318;2023-04-21T13:16:19;7.88;;;3.30;;
72105;SDS011;59975;47.646;18.318;2023-04-21T13:18:45;5.17;;;3.47;;
72105;SDS011;59975;47.646;18.318;2023-04-21T13:21:11;7.60;;;3.50;;
72105;SDS011;59975;47.646;18.318;2023-04-21T13:23:37;7.35;;;3.50;;
72105;SDS011;59975;47.646;18.318;2023-04-21T13:26:03;9.50;;;3.50;;
72105;SDS011;59975;47.646;18.318;2023-04-21T13:28:28;6.80;;;3.30;;
72105;SDS011;59975;47.646;18.318;2023-04-21T13:30:56;10.17;;;4.23;;
72105;SDS011;59975;47.646;18.318;2023-04-21T13:33:22;5.25;;;3.42;;
72105;SDS011;59975;47.646;18.318;2023-04-21T13:35:48;6.05;;;3.30;;
72105;SDS011;59975;47.646;18.318;2023-04-21T13:38:14;8.13;;;3.63;;
72105;SDS011;59975;47.646;18.318;2023-04-21T13:40:39;9.43;;;3.53;;
72105;SDS011;59975;47.646;18.318;2023-04-21T13:43:05;9.43;;;3.70;;
72105;SDS011;59975;47.646;18.318;2023-04-21T13:45:30;6.80;;;2.80;;
72105;SDS011;59975;47.646;18.318;2023-04-21T13:47:56;6.82;;;3.67;;
72105;SDS011;59975;47.646;18.318;2023-04-21T13:50:24;9.03;;;3.77;;
72105;SDS011;59975;47.646;18.318;2023-04-21T13:52:50;6.43;;;3.83;;
72105;SDS011;59975;47.646;18.318;2023-04-21T13:55:16;8.90;;;3.33;;
72105;SDS011;59975;47.646;18.318;2023-04-21T13:57:41;11.80;;;3.30;;
72105;SDS011;59975;47.646;18.318;2023-04-21T14:00:07;8.00;;;3.17;;
72105;SDS011;59975;47.646;18.318;2023-04-21T14:02:34;10.40;;;3.58;;
72105;SDS011;59975;47.646;18.318;2023-04-21T14:05:00;5.63;;;2.80;;
72105;SDS011;59975;47.646;18.318;2023-04-21T14:07:25;7.23;;;3.70;;
72105;SDS011;59975;47.646;18.318;2023-04-21T14:09:51;8.93;;;3.73;;
72105;SDS011;59975;47.646;18.318;2023-04-21T14:12:17;5.45;;;3.42;;
72105;SDS011;59975;47.646;18.318;2023-04-21T14:14:42;8.47;;;3.50;;
72105;SDS011;59975;47.646;18.318;2023-04-21T14:17:08;6.40;;;3.30;;
72105;SDS011;59975;47.646;18.318;2023-04-21T14:19:34;9.93;;;4.20;;
72105;SDS011;59975;47.646;18.318;2023-04-21T14:22:00;7.55;;;3.38;;
72105;SDS011;59975;47.646;18.318;2023-04-21T14:24:25;8.90;;;3.30;;
72105;SDS011;59975;47.646;18.318;2023-04-21T14:26:53;13.40;;;3.83;;
72105;SDS011;59975;47.646;18.318;2023-04-21T14:29:20;8.38;;;3.67;;
72105;SDS011;59975;47.646;18.318;2023-04-21T14:31:46;7.13;;;3.25;;
72105;SDS011;59975;47.646;18.318;2023-04-21T14:34:12;8.87;;;3.87;;
72105;SDS011;59975;47.646;18.318;2023-04-21T14:36:38;5.77;;;3.93;;
72105;SDS011;59975;47.646;18.318;2023-04-21T14:39:03;7.45;;;3.63;;
72105;SDS011;59975;47.646;18.318;2023-04-21T14:41:29;7.27;;;3.03;;
72105;SDS011;59975;47.646;18.318;2023-04-21T14:43:54;9.90;;;3.90;;
72105;SDS011;59975;47.646;18.318;2023-04-21T14:46:21;7.07;;;3.57;;
72105;SDS011;59975;47.646;18.318;2023-04-21T14:48:47;7.88;;;3.78;;
72105;SDS011;59975;47.646;18.318;2023-04-21T14:51:13;10.17;;;3.10;;
72105;SDS011;59975;47.646;18.318;2023-04-21T14:53:38;5.95;;;3.90;;
72105;SDS011;59975;47.646;18.318;2023-04-21T14:56:04;9.93;;;3.85;;
72105;SDS011;59975;47.646;18.318;2023-04-21T14:58:30;7.50;;;3.77;;
72105;SDS011;59975;47.646;18.318;2023-04-21T15:00:56;7.65;;;3.47;;
72105;SDS011;59975;47.646;18.318;2023-04-21T15:03:22;7.43;;;3.63;;
72105;SDS011;59975;47.646;18.318;2023-04-21T15:05:48;7.43;;;3.65;;
72105;SDS011;59975;47.646;18.318;2023-04-21T15:08:13;7.97;;;3.30;;
72105;SDS011;59975;47.646;18.318;2023-04-21T15:10:42;10.68;;;3.78;;
72105;SDS011;59975;47.646;18.318;2023-04-21T15:13:08;5.85;;;3.60;;
72105;SDS011;59975;47.646;18.318;2023-04-21T15:15:34;5.53;;;3.70;;
72105;SDS011;59975;47.646;18.318;2023-04-21T15:18:00;6.67;;;3.80;;
72105;SDS011;59975;47.646;18.318;2023-04-21T15:20:25;5.57;;;3.43;;
72105;SDS011;59975;47.646;18.318;2023-04-21T15:22:51;7.28;;;3.45;;
72105;SDS011;59975;47.646;18.318;2023-04-21T15:25:16;12.53;;;4.00;;
72105;SDS011;59975;47.646;18.318;2023-04-21T15:27:42;10.38;;;3.92;;
72105;SDS011;59975;47.646;18.318;2023-04-21T15:30:08;5.80;;;3.43;;
72105;SDS011;59975;47.646;18.318;2023-04-21T15:32:34;6.80;;;3.50;;
72105;SDS011;59975;47.646;18.318;2023-04-21T15:34:59;7.93;;;3.33;;
72105;SDS011;59975;47.646;18.318;2023-04-21T15:37:26;9.43;;;3.63;;
72105;SDS011;59975;47.646;18.318;2023-04-21T15:39:51;9.93;;;3.67;;
72105;SDS011;59975;47.646;18.318;2023-04-21T15:42:17;7.95;;;3.65;;
72105;SDS011;59975;47.646;18.318;2023-04-21T15:44:42;6.40;;;3.77;;
72105;SDS011;59975;47.646;18.318;2023-04-21T15:47:08;7.63;;;3.93;;
72105;SDS011;59975;47.646;18.318;2023-04-21T15:49:34;7.25;;;3.67;;
72105;SDS011;59975;47.646;18.318;2023-04-21T15:52:00;9.60;;;3.80;;
72105;SDS011;59975;47.646;18.318;2023-04-21T15:54:27;11.13;;;4.18;;
72105;SDS011;59975;47.646;18.318;2023-04-21T15:56:53;6.80;;;3.27;;
72105;SDS011;59975;47.646;18.318;2023-04-21T15:59:18;6.33;;;3.23;;
72105;SDS011;59975;47.646;18.318;2023-04-21T16:01:44;5.78;;;3.53;;
72105;SDS011;59975;47.646;18.318;2023-04-21T16:04:10;5.60;;;3.97;;
72105;SDS011;59975;47.646;18.318;2023-04-21T16:06:36;9.82;;;4.20;;
72105;SDS011;59975;47.646;18.318;2023-04-21T16:09:01;8.93;;;4.40;;
72105;SDS011;59975;47.646;18.318;2023-04-21T16:11:27;8.77;;;3.90;;
72105;SDS011;59975;47.646;18.318;2023-04-21T16:13:53;8.27;;;3.37;;
72105;SDS011;59975;47.646;18.318;2023-04-21T16:16:19;6.38;;;3.28;;
72105;SDS011;59975;47.646;18.318;2023-04-21T16:18:45;6.37;;;3.47;;
72105;SDS011;59975;47.646;18.318;2023-04-21T16:21:10;9.43;;;3.42;;
72105;SDS011;59975;47.646;18.318;2023-04-21T16:23:36;6.03;;;3.57;;
72105;SDS011;59975;47.646;18.318;2023-04-21T16:26:02;9.18;;;3.92;;
72105;SDS011;59975;47.646;18.318;2023-04-21T16:28:29;7.25;;;3.65;;
72105;SDS011;59975;47.646;18.318;2023-04-21T16:30:55;8.53;;;3.53;;
72105;SDS011;59975;47.646;18.318;2023-04-21T16:33:21;6.23;;;4.00;;
72105;SDS011;59975;47.646;18.318;2023-04-21T16:35:46;8.75;;;3.83;;
72105;SDS011;59975;47.646;18.318;2023-04-21T16:38:12;5.30;;;3.30;;
72105;SDS011;59975;47.646;18.318;2023-04-21T16:40:37;10.67;;;3.63;;
72105;SDS011;59975;47.646;18.318;2023-04-21T16:43:03;9.43;;;3.70;;
72105;SDS011;59975;47.646;18.318;2023-04-21T16:45:28;6.17;;;3.80;;
72105;SDS011;59975;47.646;18.318;2023-04-21T16:47:54;11.20;;;4.20;;
72105;SDS011;59975;47.646;18.318;2023-04-21T16:50:20;7.72;;;4.88;;
72105;SDS011;59975;47.646;18.318;2023-04-21T16:52:46;10.33;;;4.43;;
72105;SDS011;59975;47.646;18.318;2023-04-21T16:55:11;11.45;;;4.38;;
72105;SDS011;59975;47.646;18.318;2023-04-21T16:57:37;9.27;;;4.60;;
72105;SDS011;59975;47.646;18.318;2023-04-21T17:00:02;8.33;;;4.30;;
72105;SDS011;59975;47.646;18.318;2023-04-21T17:02:32;8.32;;;4.40;;
72105;SDS011;59975;47.646;18.318;2023-04-21T17:04:58;9.55;;;4.93;;
72105;SDS011;59975;47.646;18.318;2023-04-21T17:07:24;9.53;;;4.63;;
72105;SDS011;59975;47.646;18.318;2023-04-21T17:09:50;10.13;;;4.70;;
72105;SDS011;59975;47.646;18.318;2023-04-21T17:12:16;10.38;;;5.38;;